Time;durP1;ratioP1;P1;durP2;ratioP2;P2;SDS_P1;SDS_P2;PMS_P1;PMS_P2;Temp;Humidity;BMP_temperature;BMP_pressure;BME280_temperature;BME280_humidity;BME280_pressure;Samples;Min_cycle;Max_cycle;Signal;HPM_P1;HPM_P2
2022/09/09 00:00:35;;;;;;;0.30;0.30;;;;;;;-145.16;100.00;76936.01;645191;217;32394;-70
2022/09/09 00:06:19;;;;;;;0.47;0.47;;;;;;;-145.16;100.00;76948.08;653708;217;32318;-70
2022/09/09 00:11:58;;;;;;;0.90;0.90;;;;;;;-145.16;100.00;76929.97;645257;217;34272;-70
2022/09/09 00:17:41;;;;;;;0.13;0.13;;;;;;;-145.16;100.00;76898.77;645034;218;32447;-70
2022/09/09 00:23:26;;;;;;;0.57;0.57;;;;;;;-145.16;100.00;76916.88;645182;217;32361;-69
2022/09/09 00:29:09;;;;;;;0.03;0.03;;;;;;;-145.16;100.00;76905.81;645173;217;32364;-70
2022/09/09 00:34:50;;;;;;;0.67;0.53;;;;;;;-145.16;100.00;76919.91;653672;217;33336;-70
2022/09/09 00:40:32;;;;;;;0.10;0.10;;;;;;;-145.16;100.00;76906.81;645276;218;37867;-69
2022/09/09 00:46:19;;;;;;;0.10;0.10;;;;;;;-145.16;100.00;76921.91;645146;217;35333;-70
2022/09/09 00:52:01;;;;;;;0.45;0.45;;;;;;;-145.16;100.00;76928.95;645258;217;33084;-70
2022/09/09 00:57:46;;;;;;;0.00;0.00;;;;;;;-145.16;100.00;76894.73;645186;217;33574;-70
2022/09/09 01:03:34;;;;;;;0.20;0.20;;;;;;;-145.16;100.00;76880.64;645043;217;32314;-70
2022/09/09 01:09:16;;;;;;;0.10;0.10;;;;;;;-145.16;100.00;76866.55;645187;217;32379;-70
2022/09/09 01:14:58;;;;;;;0.10;0.10;;;;;;;-145.16;100.00;76852.46;653676;217;32372;-70
2022/09/09 01:20:41;;;;;;;0.10;0.10;;;;;;;-145.16;100.00;76891.72;645209;217;34314;-70
2022/09/09 01:26:25;;;;;;;0.17;0.17;;;;;;;-145.16;100.00;76935.00;653703;217;32342;-70
2022/09/09 01:32:07;;;;;;;0.10;0.10;;;;;;;-145.16;100.00;76905.81;645191;217;33337;-70
2022/09/09 01:37:48;;;;;;;0.10;0.10;;;;;;;-145.16;100.00;76924.94;645185;217;33344;-70
2022/09/09 01:43:30;;;;;;;0.20;0.20;;;;;;;-145.16;100.00;76942.05;645178;217;32400;-71
2022/09/09 01:49:11;;;;;;;0.30;0.30;;;;;;;-145.16;100.00;76966.20;645167;217;32392;-70
2022/09/09 01:54:52;;;;;;;0.10;0.10;;;;;;;-145.16;100.00;76982.31;653748;217;34407;-71
2022/09/09 02:00:35;;;;;;;0.10;0.10;;;;;;;-145.16;100.00;76922.92;645189;217;33312;-70
2022/09/09 02:06:16;;;;;;;0.10;0.10;;;;;;;-145.16;100.00;76936.01;645201;217;32367;-70
2022/09/09 02:12:00;;;;;;;0.30;0.30;;;;;;;-145.16;100.00;76940.03;645040;217;32317;-70
2022/09/09 02:17:42;;;;;;;0.10;0.10;;;;;;;-145.16;100.00;76942.05;653684;218;32366;-71
2022/09/09 02:23:24;;;;;;;0.60;0.57;;;;;;;-145.16;100.00;76957.14;645233;218;34318;-71
2022/09/09 02:29:05;;;;;;;0.30;0.30;;;;;;;-145.16;100.00;76952.11;645161;217;32431;-71
2022/09/09 02:34:49;;;;;;;0.20;0.20;;;;;;;-145.16;100.00;76943.05;653671;217;32387;-71
2022/09/09 02:40:32;;;;;;;0.20;0.20;;;;;;;-145.16;100.00;76955.13;645024;217;32356;-71
2022/09/09 02:46:14;;;;;;;0.80;0.80;;;;;;;-145.16;100.00;76955.13;645186;217;34624;-70
2022/09/09 02:51:55;;;;;;;0.60;0.60;;;;;;;-145.16;100.00;76952.11;645195;217;33313;-71
2022/09/09 02:57:40;;;;;;;0.20;0.20;;;;;;;-145.16;100.00;76932.98;645018;218;32360;-71
2022/09/09 03:03:23;;;;;;;0.40;0.40;;;;;;;-145.16;100.00;76935.00;645009;217;32364;-71
2022/09/09 03:09:05;;;;;;;0.50;0.50;;;;;;;-145.16;100.00;76949.09;645181;218;32390;-71
2022/09/09 03:14:46;;;;;;;0.10;0.10;;;;;;;-145.16;100.00;76954.13;645188;218;32359;-71
2022/09/09 03:20:27;;;;;;;0.00;0.00;;;;;;;-145.16;100.00;76938.02;645157;217;32371;-71
2022/09/09 03:26:09;;;;;;;0.10;0.10;;;;;;;-145.16;100.00;76938.02;645188;218;32372;-71
2022/09/09 03:31:50;;;;;;;0.10;0.10;;;;;;;-145.16;100.00;76917.89;653674;218;33356;-71
2022/09/09 03:37:32;;;;;;;0.13;0.13;;;;;;;-145.16;100.00;76905.81;645181;218;32399;-71
2022/09/09 03:43:13;;;;;;;0.10;0.10;;;;;;;-145.16;100.00;76899.77;645275;218;32932;-70
2022/09/09 03:48:54;;;;;;;0.20;0.20;;;;;;;-145.16;100.00;76897.76;645189;216;32364;-71
2022/09/09 03:54:36;;;;;;;0.60;0.60;;;;;;;-145.16;100.00;76879.64;653675;217;32401;-71
2022/09/09 04:00:17;;;;;;;0.50;0.50;;;;;;;-145.16;100.00;76861.52;653684;217;34291;-71
2022/09/09 04:05:59;;;;;;;0.30;0.30;;;;;;;-145.16;100.00;76861.52;645188;217;34312;-71
2022/09/09 04:11:42;;;;;;;0.00;0.00;;;;;;;-145.16;100.00;76844.41;643584;217;33328;-71
2022/09/09 04:17:24;;;;;;;0.23;0.23;;;;;;;-145.16;100.00;76855.48;653680;218;33338;-72
2022/09/09 04:23:05;;;;;;;0.23;0.23;;;;;;;-145.16;100.00;76845.41;645170;216;33612;-72
2022/09/09 04:28:46;;;;;;;0.37;0.37;;;;;;;-145.16;100.00;76840.38;645231;218;35285;-71
2022/09/09 04:34:30;;;;;;;0.40;0.40;;;;;;;-145.16;100.00;76836.36;640411;217;33498;-72
2022/09/09 04:40:10;;;;;;;0.43;0.43;;;;;;;-145.16;100.00;76826.29;645158;217;32390;-71
2022/09/09 04:45:52;;;;;;;0.27;0.27;;;;;;;-145.16;100.00;76799.11;645183;217;32324;-72
2022/09/09 04:51:34;;;;;;;0.30;0.30;;;;;;;-145.16;100.00;76810.19;645167;217;32377;-71
2022/09/09 04:57:17;;;;;;;0.83;0.83;;;;;;;-145.16;100.00;76798.11;645049;217;32632;-71
2022/09/09 05:02:59;;;;;;;0.40;0.40;;;;;;;-145.16;100.00;76802.13;645220;217;35325;-72
2022/09/09 05:08:40;;;;;;;1.20;0.60;;;;;;;-145.16;100.00;76800.12;653734;218;34373;-72
2022/09/09 05:14:28;;;;;;;0.43;0.40;;;;;;;-145.16;100.00;76753.81;645181;217;33375;-71
2022/09/09 05:20:09;;;;;;;1.30;0.60;;;;;;;-145.16;100.00;76749.79;653694;217;33351;-71
2022/09/09 05:25:50;;;;;;;2.30;0.90;;;;;;;-145.16;100.00;76757.84;653670;217;33665;-71
2022/09/09 05:31:34;;;;;;;0.33;0.33;;;;;;;-145.16;100.00;76694.43;653676;217;32426;-71
2022/09/09 05:37:16;;;;;;;14.60;1.00;;;;;;;-145.16;100.00;76680.34;647300;218;32361;-71
2022/09/09 05:42:58;;;;;;;0.73;0.73;;;;;;;-145.16;100.00;76605.86;653683;217;32408;-72
2022/09/09 05:48:41;;;;;;;1.05;1.00;;;;;;;-145.16;100.00;76505.21;645075;218;32357;-71
2022/09/09 05:54:23;;;;;;;0.50;0.50;;;;;;;-145.16;100.00;76437.78;645179;217;32688;-72
2022/09/09 06:00:04;;;;;;;0.88;0.35;;;;;;;-145.16;100.00;76493.13;645213;217;41461;-71
2022/09/09 06:05:46;;;;;;;0.20;0.20;;;;;;;-145.16;100.00;76544.47;645193;217;32419;-71
2022/09/09 06:11:30;;;;;;;1.40;0.32;;;;;;;-145.16;100.00;76628.00;653662;217;32432;-71
2022/09/09 06:17:13;;;;;;;0.77;0.77;;;;;;;-145.16;100.00;76543.45;653657;217;32354;-71
2022/09/09 06:22:54;;;;;;;0.22;0.22;;;;;;;-145.16;100.00;76480.05;645251;217;35344;-72
2022/09/09 06:28:36;;;;;;;0.50;0.50;;;;;;;-145.16;100.00;76486.09;653674;217;43094;-72
2022/09/09 06:34:17;;;;;;;0.70;0.60;;;;;;;-145.16;100.00;76449.86;645181;218;43107;-72
2022/09/09 06:40:00;;;;;;;2.67;1.33;;;;;;;-145.16;100.00;76304.93;645055;216;32389;-71
2022/09/09 06:45:41;;;;;;;0.90;0.90;;;;;;;-145.16;100.00;76181.14;645186;216;32359;-72
2022/09/09 06:51:22;;;;;;;1.27;0.77;;;;;;;-145.16;100.00;76031.20;645170;217;32408;-71
2022/09/09 06:57:06;;;;;;;0.55;0.55;;;;;;;-145.16;100.00;76053.34;645169;217;32409;-69
2022/09/09 07:02:45;;;;;;;1.10;0.60;;;;;;;-145.16;100.00;76102.65;645188;217;32355;-70
2022/09/09 07:08:28;;;;;;;2.00;1.20;;;;;;;-145.16;100.00;76112.72;645144;216;32418;-69
2022/09/09 07:14:08;;;;;;;0.37;0.37;;;;;;;-145.16;100.00;76247.56;645162;217;32433;-70
2022/09/09 07:19:50;;;;;;;1.12;0.73;;;;;;;-145.16;100.00;76309.97;653702;217;32411;-71
2022/09/09 07:25:33;;;;;;;1.20;0.95;;;;;;;-145.16;100.00;76220.39;645014;217;43062;-72
2022/09/09 07:31:16;;;;;;;0.50;0.50;;;;;;;-145.16;100.00;76237.50;645159;217;32395;-69
2022/09/09 07:36:57;;;;;;;0.30;0.30;;;;;;;-145.16;100.00;76312.98;645190;217;32412;-73
2022/09/09 07:42:38;;;;;;;1.80;1.12;;;;;;;-145.16;100.00;76367.33;645179;217;32461;-69
2022/09/09 07:48:20;;;;;;;0.22;0.22;;;;;;;-145.16;100.00;76421.67;645163;217;32370;-72
2022/09/09 07:54:03;;;;;;;3.40;1.12;;;;;;;-145.16;100.00;76499.17;645182;217;32345;-73
2022/09/09 07:59:44;;;;;;;2.50;1.10;;;;;;;-145.16;100.00;76494.14;653669;218;32397;-70
2022/09/09 08:05:28;;;;;;;1.02;0.60;;;;;;;-145.16;100.00;76543.45;645003;218;32408;-70
2022/09/09 08:11:11;;;;;;;2.35;0.85;;;;;;;-145.16;100.00;76597.81;645159;217;32393;-72
2022/09/09 08:16:53;;;;;;;0.70;0.70;;;;;;;-145.16;100.00;76655.18;645163;217;32361;-72
2022/09/09 08:22:34;;;;;;;0.32;0.32;;;;;;;-145.16;100.00;76628.00;644995;217;32695;-71
2022/09/09 08:28:16;;;;;;;0.43;0.43;;;;;;;-145.16;100.00;76578.69;650702;216;29333;-69
2022/09/09 08:33:59;;;;;;;0.43;0.43;;;;;;;-145.16;100.00;76608.88;640905;217;32513;-72
2022/09/09 08:39:38;;;;;;;3.35;1.27;;;;;;;-145.16;100.00;76680.34;645189;217;32446;-72
2022/09/09 08:45:25;;;;;;;2.72;1.48;;;;;;;-145.16;100.00;76646.12;645031;217;32360;-72
2022/09/09 08:51:10;;;;;;;7.53;0.98;;;;;;;-145.16;100.00;76715.56;645020;217;32338;-72
2022/09/09 08:56:52;;;;;;;0.93;0.93;;;;;;;-145.16;100.00;76719.59;653664;217;32365;-72
2022/09/09 09:02:33;;;;;;;0.57;0.57;;;;;;;-145.16;100.00;76709.53;645163;218;32381;-73
2022/09/09 09:08:24;;;;;;;1.77;0.57;;;;;;;-145.16;100.00;76761.88;645184;217;43047;-72
2022/09/09 09:14:05;;;;;;;0.30;0.30;;;;;;;-145.16;100.00;76713.55;653681;217;32381;-71
2022/09/09 09:19:49;;;;;;;1.55;1.35;;;;;;;-145.16;100.00;76762.88;627707;216;32470;-72
2022/09/09 09:25:31;;;;;;;0.50;0.50;;;;;;;-145.16;100.00;76714.56;653695;217;32659;-72
2022/09/09 09:31:13;;;;;;;2.90;0.80;;;;;;;-145.16;100.00;76696.45;645178;217;32430;-71
2022/09/09 09:36:58;;;;;;;3.60;0.70;;;;;;;-145.16;100.00;76713.55;645047;218;32356;-72
2022/09/09 09:42:40;;;;;;;5.00;0.60;;;;;;;-145.16;100.00;76662.22;645141;217;32702;-72
2022/09/09 09:48:24;;;;;;;0.40;0.40;;;;;;;-145.16;100.00;76725.63;645042;217;32306;-72
2022/09/09 09:54:05;;;;;;;1.10;1.10;;;;;;;-145.16;100.00;76697.45;653677;217;32386;-71
2022/09/09 09:59:47;;;;;;;0.20;0.20;;;;;;;-145.16;100.00;76692.42;644277;217;32425;-72
2022/09/09 10:05:35;;;;;;;0.30;0.30;;;;;;;-145.16;100.00;76657.19;644999;217;32305;-72
2022/09/09 10:11:19;;;;;;;1.52;1.23;;;;;;;-145.16;100.00;76729.66;642168;217;32602;-72
2022/09/09 10:17:03;;;;;;;1.90;0.50;;;;;;;-145.16;100.00;76805.15;645046;217;32585;-72
2022/09/09 10:22:45;;;;;;;2.00;0.80;;;;;;;-145.16;100.00;76867.56;653675;217;43105;-72
2022/09/09 10:28:30;;;;;;;0.10;0.10;;;;;;;-145.16;100.00;76798.11;644353;217;43110;-72
2022/09/09 10:34:13;;;;;;;0.50;0.50;;;;;;;-145.16;100.00;76847.42;645178;217;32366;-72
2022/09/09 10:39:57;;;;;;;0.30;0.30;;;;;;;-145.16;100.00;76817.23;653670;218;32356;-72
2022/09/09 10:45:37;;;;;;;0.45;0.45;;;;;;;-145.16;100.00;76780.99;645038;218;32392;-71
2022/09/09 10:51:24;;;;;;;0.20;0.20;;;;;;;-145.16;100.00;76702.48;645162;216;32377;-71
2022/09/09 10:57:07;;;;;;;0.93;0.70;;;;;;;-145.16;100.00;76763.88;645027;217;32395;-71
2022/09/09 11:02:49;;;;;;;1.80;1.20;;;;;;;-145.16;100.00;76818.23;653660;217;32385;-71
2022/09/09 11:08:31;;;;;;;2.15;1.02;;;;;;;-145.16;100.00;76792.06;653663;217;32313;-71
2022/09/09 11:14:13;;;;;;;3.20;0.60;;;;;;;-145.16;100.00;76664.23;653715;217;32359;-71
2022/09/09 11:19:55;;;;;;;2.47;1.20;;;;;;;-145.16;100.00;76492.13;653691;217;32445;-72
2022/09/09 11:25:37;;;;;;;4.45;1.05;;;;;;;-145.16;100.00;76688.39;643022;217;32519;-71
2022/09/09 11:31:21;;;;;;;2.10;0.95;;;;;;;-145.16;100.00;76695.44;645136;217;32408;-69
2022/09/09 11:37:08;;;;;;;1.20;1.10;;;;;;;-145.16;100.00;76702.48;645237;217;41663;-72
2022/09/09 11:43:15;;;;;;;0.52;0.52;;;;;;;-145.16;100.00;76658.20;635889;217;32385;-69
2022/09/09 11:48:57;;;;;;;0.80;0.80;;;;;;;-145.16;100.00;76671.28;645177;217;32427;-71
2022/09/09 11:54:42;;;;;;;1.83;1.00;;;;;;;-145.16;100.00;76661.22;645022;218;32404;-71
2022/09/09 12:00:29;;;;;;;2.12;1.08;;;;;;;-145.16;100.00;76694.43;645190;217;32336;-71
2022/09/09 12:06:10;;;;;;;0.45;0.45;;;;;;;-145.16;100.00;76673.30;648561;217;32359;-71
2022/09/09 12:11:52;;;;;;;0.85;0.85;;;;;;;-145.16;100.00;76705.50;646947;217;43144;-72
2022/09/09 12:17:36;;;;;;;0.70;0.50;;;;;;;-145.16;100.00;76537.42;645156;217;32366;-72
2022/09/09 12:23:19;;;;;;;1.42;0.93;;;;;;;-145.16;100.00;76621.97;653672;218;32367;-69
2022/09/09 12:29:04;;;;;;;0.28;0.28;;;;;;;-145.16;100.00;76533.39;645186;217;32367;-72
2022/09/09 12:34:45;;;;;;;0.93;0.75;;;;;;;-145.16;100.00;76611.90;642471;218;32420;-71
2022/09/09 12:40:32;;;;;;;0.70;0.60;;;;;;;-145.16;100.00;76592.77;645165;217;42957;-69
2022/09/09 12:46:12;;;;;;;0.50;0.50;;;;;;;-145.16;100.00;76589.75;645177;217;32397;-71
2022/09/09 12:51:54;;;;;;;3.70;1.33;;;;;;;-145.16;100.00;76603.84;645194;217;32659;-72
2022/09/09 12:57:35;;;;;;;2.00;0.80;;;;;;;-145.16;100.00;76574.66;645187;218;32392;-72
2022/09/09 13:03:22;;;;;;;0.30;0.30;;;;;;;-145.16;100.00;76475.02;645067;217;32403;-72
2022/09/09 13:09:05;;;;;;;0.40;0.40;;;;;;;-145.16;100.00;76529.37;645186;217;32369;-72
2022/09/09 13:14:46;;;;;;;0.80;0.68;;;;;;;-145.16;100.00;76568.62;645148;217;32367;-71
2022/09/09 13:20:32;;;;;;;0.20;0.20;;;;;;;-145.16;100.00;76443.81;645074;218;32406;-73
2022/09/09 13:26:15;;;;;;;0.17;0.17;;;;;;;-145.16;100.00;76419.66;645063;217;32431;-72
2022/09/09 13:31:57;;;;;;;0.40;0.40;;;;;;;-145.16;100.00;76357.27;645196;217;32366;-70
2022/09/09 13:37:42;;;;;;;0.40;0.40;;;;;;;-145.16;100.00;76385.45;645013;217;32314;-72
2022/09/09 13:43:27;;;;;;;0.40;0.40;;;;;;;-145.16;100.00;76428.72;653655;218;32314;-72
2022/09/09 13:49:09;;;;;;;0.20;0.20;;;;;;;-145.16;100.00;76423.69;632556;217;32417;-71
2022/09/09 13:54:53;;;;;;;0.60;0.60;;;;;;;-145.16;100.00;76490.12;653632;217;32353;-73
2022/09/09 14:00:36;;;;;;;0.20;0.20;;;;;;;-145.16;100.00;76456.91;645046;217;43001;-72
2022/09/09 14:06:18;;;;;;;0.30;0.30;;;;;;;-145.16;100.00;76496.16;645169;217;32365;-72
2022/09/09 14:12:00;;;;;;;0.22;0.22;;;;;;;-145.16;100.00;76395.51;653618;217;32364;-72
2022/09/09 14:17:40;;;;;;;0.30;0.30;;;;;;;-145.16;100.00;76358.27;645157;217;32398;-71
2022/09/09 14:23:22;;;;;;;1.17;1.08;;;;;;;-145.16;100.00;76415.64;653670;217;32378;-72
2022/09/09 14:29:04;;;;;;;0.30;0.30;;;;;;;-145.16;100.00;76445.83;653681;217;32380;-71
2022/09/09 14:34:45;;;;;;;0.20;0.20;;;;;;;-145.16;100.00;76430.73;653688;217;32363;-72
2022/09/09 14:40:26;;;;;;;0.25;0.25;;;;;;;-145.16;100.00;76509.23;653682;217;32353;-71
2022/09/09 14:46:08;;;;;;;0.20;0.20;;;;;;;-145.16;100.00;76483.07;644902;217;32410;-71
2022/09/09 14:51:50;;;;;;;0.30;0.30;;;;;;;-145.16;100.00;76409.59;645179;217;32428;-71
2022/09/09 14:57:31;;;;;;;0.30;0.30;;;;;;;-145.16;100.00;76478.03;645183;217;32442;-71
2022/09/09 15:03:13;;;;;;;0.90;0.90;;;;;;;-145.16;100.00;76523.33;645168;217;32655;-71
2022/09/09 15:08:57;;;;;;;0.28;0.28;;;;;;;-145.16;100.00;76481.05;653674;216;32639;-71
2022/09/09 15:14:35;;;;;;;0.30;0.30;;;;;;;-145.16;100.00;76453.88;645185;217;32396;-72
2022/09/09 15:20:19;;;;;;;0.37;0.37;;;;;;;-145.16;100.00;76493.13;645026;217;32437;-72
2022/09/09 15:26:00;;;;;;;0.40;0.40;;;;;;;-145.16;100.00;76479.05;645166;217;32359;-72
2022/09/09 15:31:41;;;;;;;0.20;0.20;;;;;;;-145.16;100.00;76483.07;645165;217;32363;-72
2022/09/09 15:37:23;;;;;;;0.30;0.30;;;;;;;-145.16;100.00;76594.79;653689;217;32652;-72
2022/09/09 15:43:05;;;;;;;0.50;0.50;;;;;;;-145.16;100.00;76630.02;653695;218;32351;-72
2022/09/09 15:48:46;;;;;;;0.10;0.10;;;;;;;-145.16;100.00;76638.06;645170;217;32681;-72
2022/09/09 15:54:27;;;;;;;0.20;0.20;;;;;;;-145.16;100.00;76656.19;645173;217;32379;-72
2022/09/09 16:00:09;;;;;;;1.20;1.20;;;;;;;-145.16;100.00;76658.20;651843;218;32413;-72
2022/09/09 16:05:52;;;;;;;0.20;0.20;;;;;;;-145.16;100.00;76623.98;647837;217;32377;-72
2022/09/09 16:11:33;;;;;;;0.20;0.20;;;;;;;-145.16;100.00;76632.03;643773;217;32369;-72
2022/09/09 16:17:15;;;;;;;0.57;0.57;;;;;;;-145.16;100.00;76597.81;645169;217;32432;-72
2022/09/09 16:22:57;;;;;;;0.30;0.30;;;;;;;-145.16;100.00;76527.36;641919;217;32363;-73
2022/09/09 16:28:38;;;;;;;0.70;0.70;;;;;;;-145.16;100.00;76506.22;652878;217;32398;-73
2022/09/09 16:34:22;;;;;;;0.43;0.43;;;;;;;-145.16;100.00;76548.48;645011;216;32399;-70
2022/09/09 16:40:03;;;;;;;0.60;0.60;;;;;;;-145.16;100.00;76571.64;645172;217;32410;-73
2022/09/09 16:45:44;;;;;;;0.10;0.10;;;;;;;-145.16;100.00;76609.88;643610;217;32362;-72
2022/09/09 16:51:25;;;;;;;0.22;0.22;;;;;;;-145.16;100.00;76606.86;643920;217;32365;-72
2022/09/09 16:57:06;;;;;;;0.20;0.20;;;;;;;-145.16;100.00;76630.02;641500;217;32501;-73
2022/09/09 17:02:48;;;;;;;0.20;0.20;;;;;;;-145.16;100.00;76596.80;641151;217;32350;-72
2022/09/09 17:08:29;;;;;;;0.20;0.20;;;;;;;-145.16;100.00;76631.02;645191;218;32320;-72
2022/09/09 17:14:11;;;;;;;0.20;0.20;;;;;;;-145.16;100.00;76641.09;645178;217;32313;-72
2022/09/09 17:19:54;;;;;;;0.20;0.20;;;;;;;-145.16;100.00;76681.34;643928;217;32618;-72
2022/09/09 17:25:35;;;;;;;0.22;0.22;;;;;;;-145.16;100.00;76692.42;636340;217;32530;-73
2022/09/09 17:31:16;;;;;;;0.15;0.15;;;;;;;-145.16;100.00;76696.45;653689;217;32418;-73
2022/09/09 17:36:58;;;;;;;0.20;0.20;;;;;;;-145.16;100.00;76693.42;645122;217;32420;-73
2022/09/09 17:42:40;;;;;;;0.20;0.20;;;;;;;-145.16;100.00;76712.55;645166;217;43344;-72
2022/09/09 17:48:21;;;;;;;0.20;0.20;;;;;;;-145.16;100.00;76726.64;645186;217;32616;-73
2022/09/09 17:54:02;;;;;;;0.17;0.17;;;;;;;-145.16;100.00;76705.50;645170;217;32377;-72
2022/09/09 17:59:44;;;;;;;0.50;0.50;;;;;;;-145.16;100.00;76736.70;653682;217;32356;-72
2022/09/09 18:05:25;;;;;;;0.28;0.28;;;;;;;-145.16;100.00;76730.67;645178;217;43404;-72
2022/09/09 18:11:06;;;;;;;0.10;0.10;;;;;;;-145.16;100.00;76762.88;645159;217;32364;-72
2022/09/09 18:16:48;;;;;;;0.10;0.10;;;;;;;-145.16;100.00;76770.92;645149;217;32381;-72
2022/09/09 18:22:30;;;;;;;0.15;0.15;;;;;;;-145.16;100.00;76763.88;645162;217;32355;-72
2022/09/09 18:28:10;;;;;;;0.35;0.35;;;;;;;-145.16;100.00;76845.41;653699;217;32722;-72
2022/09/09 18:33:53;;;;;;;0.25;0.25;;;;;;;-145.16;100.00;76843.40;653702;217;32418;-73
2022/09/09 18:39:36;;;;;;;0.45;0.45;;;;;;;-145.16;100.00;76877.63;645018;217;32381;-72
2022/09/09 18:45:21;;;;;;;0.57;0.57;;;;;;;-145.16;100.00;76920.91;653664;217;32370;-72
2022/09/09 18:51:05;;;;;;;0.30;0.30;;;;;;;-145.16;100.00;76927.95;645113;218;32653;-72
2022/09/09 18:56:48;;;;;;;0.20;0.20;;;;;;;-145.16;100.00;76922.92;653685;218;32646;-72
2022/09/09 19:02:30;;;;;;;0.30;0.30;;;;;;;-145.16;100.00;76933.99;641396;217;32541;-72
2022/09/09 19:08:14;;;;;;;1.00;0.90;;;;;;;-145.16;100.00;76897.76;645057;217;32363;-72
2022/09/09 19:13:54;;;;;;;0.20;0.20;;;;;;;-145.16;100.00;76880.64;645184;217;32395;-72
2022/09/09 19:19:41;;;;;;;0.10;0.10;;;;;;;-145.16;100.00;76861.52;645035;217;43070;-72
2022/09/09 19:25:21;;;;;;;0.10;0.10;;;;;;;-145.16;100.00;76872.59;653668;218;32394;-72
2022/09/09 19:31:02;;;;;;;0.20;0.20;;;;;;;-145.16;100.00;76926.95;645175;218;32382;-72
2022/09/09 19:36:43;;;;;;;0.20;0.20;;;;;;;-145.16;100.00;76923.92;645830;217;32398;-72
2022/09/09 19:42:25;;;;;;;0.17;0.17;;;;;;;-145.16;100.00;76936.01;645158;218;32382;-71
2022/09/09 19:48:06;;;;;;;0.10;0.10;;;;;;;-145.16;100.00;76947.08;646512;217;32559;-73
2022/09/09 19:53:51;;;;;;;0.10;0.10;;;;;;;-145.16;100.00;76955.13;645107;217;34310;-72
2022/09/09 19:59:32;;;;;;;0.73;0.73;;;;;;;-145.16;100.00;77025.59;644779;217;43043;-72
2022/09/09 20:05:13;;;;;;;0.57;0.57;;;;;;;-145.16;100.00;77059.82;642662;217;32396;-72
2022/09/09 20:10:55;;;;;;;0.88;0.88;;;;;;;-145.16;100.00;77039.69;641542;217;32506;-72
2022/09/09 20:16:36;;;;;;;0.20;0.20;;;;;;;-145.16;100.00;76982.31;653650;217;32405;-72
2022/09/09 20:22:17;;;;;;;0.10;0.10;;;;;;;-145.16;100.00;76969.22;653727;217;34338;-72
2022/09/09 20:27:58;;;;;;;0.10;0.10;;;;;;;-145.16;100.00;76975.27;645150;217;32347;-72
2022/09/09 20:33:40;;;;;;;0.10;0.10;;;;;;;-145.16;100.00;76987.34;645161;217;32597;-73
2022/09/09 20:39:26;;;;;;;0.20;0.20;;;;;;;-145.16;100.00;77036.66;643474;217;32348;-73
2022/09/09 20:45:08;;;;;;;0.20;0.20;;;;;;;-145.16;100.00;77037.67;644011;217;32393;-72
2022/09/09 20:50:50;;;;;;;0.70;0.40;;;;;;;-145.16;100.00;77038.68;653713;217;34326;-72
2022/09/09 20:56:36;;;;;;;0.30;0.30;;;;;;;-145.16;100.00;77025.59;645022;218;32378;-72
2022/09/09 21:02:16;;;;;;;0.10;0.10;;;;;;;-145.16;100.00;77036.66;644869;217;32351;-72
2022/09/09 21:07:56;;;;;;;0.10;0.10;;;;;;;-145.16;100.00;77021.56;640425;217;32601;-72
2022/09/09 21:13:38;;;;;;;0.25;0.25;;;;;;;-145.16;100.00;77045.73;645140;216;32386;-72
2022/09/09 21:19:19;;;;;;;0.10;0.10;;;;;;;-145.16;100.00;77020.56;653662;216;32361;-72
2022/09/09 21:25:01;;;;;;;0.20;0.20;;;;;;;-145.16;100.00;77018.55;645188;217;34325;-73
2022/09/09 21:30:42;;;;;;;0.13;0.13;;;;;;;-145.16;100.00;77021.56;647751;217;32325;-72
2022/09/09 21:36:24;;;;;;;1.08;1.00;;;;;;;-145.16;100.00;77081.97;645210;217;40288;-72
2022/09/09 21:42:05;;;;;;;0.20;0.20;;;;;;;-145.16;100.00;77051.77;653738;217;34315;-72
2022/09/09 21:47:51;;;;;;;0.50;0.50;;;;;;;-145.16;100.00;77051.77;645004;217;32359;-72
2022/09/09 21:53:31;;;;;;;0.20;0.20;;;;;;;-145.16;100.00;77047.73;643451;217;32336;-72
2022/09/09 21:59:13;;;;;;;0.50;0.50;;;;;;;-145.16;100.00;77040.70;639137;217;32619;-72
2022/09/09 22:04:55;;;;;;;0.27;0.27;;;;;;;-145.16;100.00;77025.59;644893;217;32382;-72
2022/09/09 22:10:36;;;;;;;0.30;0.30;;;;;;;-145.16;100.00;77010.50;640011;217;32562;-72
2022/09/09 22:16:18;;;;;;;0.10;0.10;;;;;;;-145.16;100.00;76994.39;645268;218;33309;-73
2022/09/09 22:21:59;;;;;;;0.10;0.10;;;;;;;-145.16;100.00;76962.17;645167;217;32379;-72
2022/09/09 22:27:41;;;;;;;0.13;0.13;;;;;;;-145.16;100.00;76972.24;644311;218;32779;-73
2022/09/09 22:33:26;;;;;;;0.43;0.43;;;;;;;-145.16;100.00;76983.31;649576;217;33042;-72
2022/09/09 22:39:06;;;;;;;1.00;1.00;;;;;;;-145.16;100.00;76988.34;645198;217;32410;-73
2022/09/09 22:44:48;;;;;;;0.30;0.30;;;;;;;-145.16;100.00;77024.59;645195;217;33355;-72
2022/09/09 22:50:31;;;;;;;0.30;0.30;;;;;;;-145.16;100.00;77014.52;653734;217;35310;-73
2022/09/09 22:56:12;;;;;;;0.20;0.20;;;;;;;-145.16;100.00;77000.42;645161;217;34362;-72
2022/09/09 23:01:55;;;;;;;0.10;0.10;;;;;;;-145.16;100.00;76951.11;645180;217;32426;-73
2022/09/09 23:07:35;;;;;;;0.30;0.30;;;;;;;-145.16;100.00;76972.24;645262;217;34326;-73
2022/09/09 23:13:19;;;;;;;0.10;0.10;;;;;;;-145.16;100.00;76917.89;645099;217;35291;-73
2022/09/09 23:19:02;;;;;;;0.10;0.10;;;;;;;-145.16;100.00;76908.83;645044;217;32366;-73
2022/09/09 23:24:43;;;;;;;0.50;0.50;;;;;;;-145.16;100.00;76905.81;645192;217;32379;-73
2022/09/09 23:30:25;;;;;;;0.27;0.27;;;;;;;-145.16;100.00;76892.72;653684;217;33621;-73
2022/09/09 23:36:06;;;;;;;0.80;0.80;;;;;;;-145.16;100.00;76920.91;645178;218;32414;-73
2022/09/09 23:41:49;;;;;;;0.28;0.28;;;;;;;-145.16;100.00;76918.89;653690;217;43106;-73
2022/09/09 23:47:29;;;;;;;0.20;0.20;;;;;;;-145.16;100.00;76899.77;645184;218;32382;-73
2022/09/09 23:53:11;;;;;;;0.10;0.10;;;;;;;-145.16;100.00;76883.66;645188;217;32362;-73
2022/09/09 23:58:52;;;;;;;0.10;0.10;;;;;;;-145.16;100.00;76904.80;645181;218;32364;-73
